sensor_id;sensor_type;location;lat;lon;timestamp;temperature;humidity
20167;DHT22;10243;49.118;8.508;2022-09-30T00:01:30;13.00;99.90
20167;DHT22;10243;49.118;8.508;2022-09-30T00:04:34;12.90;99.90
20167;DHT22;10243;49.118;8.508;2022-09-30T00:07:36;12.70;99.90
20167;DHT22;10243;49.118;8.508;2022-09-30T00:10:38;12.80;99.90
20167;DHT22;10243;49.118;8.508;2022-09-30T00:13:40;12.90;99.90
20167;DHT22;10243;49.118;8.508;2022-09-30T00:16:42;13.10;99.90
20167;DHT22;10243;49.118;8.508;2022-09-30T00:19:45;13.10;99.90
20167;DHT22;10243;49.118;8.508;2022-09-30T00:22:48;13.10;99.90
20167;DHT22;10243;49.118;8.508;2022-09-30T00:25:50;13.10;99.90
20167;DHT22;10243;49.118;8.508;2022-09-30T00:28:53;13.10;99.90
20167;DHT22;10243;49.118;8.508;2022-09-30T00:31:56;13.10;99.90
20167;DHT22;10243;49.118;8.508;2022-09-30T00:34:59;13.10;99.90
20167;DHT22;10243;49.118;8.508;2022-09-30T00:38:01;13.00;99.90
20167;DHT22;10243;49.118;8.508;2022-09-30T00:41:03;13.10;99.90
20167;DHT22;10243;49.118;8.508;2022-09-30T00:44:43;13.10;99.90
20167;DHT22;10243;49.118;8.508;2022-09-30T00:47:49;13.10;99.90
20167;DHT22;10243;49.118;8.508;2022-09-30T00:50:54;13.10;99.90
20167;DHT22;10243;49.118;8.508;2022-09-30T00:53:58;13.10;99.90
20167;DHT22;10243;49.118;8.508;2022-09-30T00:57:02;13.00;99.90
20167;DHT22;10243;49.118;8.508;2022-09-30T01:00:06;12.90;99.90
20167;DHT22;10243;49.118;8.508;2022-09-30T01:03:08;12.90;99.90
20167;DHT22;10243;49.118;8.508;2022-09-30T01:06:11;12.90;99.90
20167;DHT22;10243;49.118;8.508;2022-09-30T01:09:13;12.90;99.90
20167;DHT22;10243;49.118;8.508;2022-09-30T01:12:18;13.00;99.90
20167;DHT22;10243;49.118;8.508;2022-09-30T01:15:24;13.00;99.90
20167;DHT22;10243;49.118;8.508;2022-09-30T01:18:39;13.00;99.90
20167;DHT22;10243;49.118;8.508;2022-09-30T01:22:02;13.00;99.90
20167;DHT22;10243;49.118;8.508;2022-09-30T01:25:27;12.90;99.90
20167;DHT22;10243;49.118;8.508;2022-09-30T01:28:59;12.80;99.90
20167;DHT22;10243;49.118;8.508;2022-09-30T01:32:13;12.90;99.90
20167;DHT22;10243;49.118;8.508;2022-09-30T01:35:24;12.90;99.90
20167;DHT22;10243;49.118;8.508;2022-09-30T01:38:32;12.70;99.90
20167;DHT22;10243;49.118;8.508;2022-09-30T01:41:42;12.60;99.90
20167;DHT22;10243;49.118;8.508;2022-09-30T01:44:50;12.60;99.90
20167;DHT22;10243;49.118;8.508;2022-09-30T01:47:58;12.70;99.90
20167;DHT22;10243;49.118;8.508;2022-09-30T01:51:03;12.80;99.90
20167;DHT22;10243;49.118;8.508;2022-09-30T01:54:13;12.90;99.90
20167;DHT22;10243;49.118;8.508;2022-09-30T01:57:21;13.00;99.90
20167;DHT22;10243;49.118;8.508;2022-09-30T02:00:25;12.90;99.90
20167;DHT22;10243;49.118;8.508;2022-09-30T02:03:32;13.00;99.90
20167;DHT22;10243;49.118;8.508;2022-09-30T02:06:38;13.10;99.90
20167;DHT22;10243;49.118;8.508;2022-09-30T02:09:44;13.10;99.90
20167;DHT22;10243;49.118;8.508;2022-09-30T02:12:52;13.10;99.90
20167;DHT22;10243;49.118;8.508;2022-09-30T02:15:58;13.00;99.90
20167;DHT22;10243;49.118;8.508;2022-09-30T02:19:09;13.00;99.90
20167;DHT22;10243;49.118;8.508;2022-09-30T02:22:15;13.00;99.90
20167;DHT22;10243;49.118;8.508;2022-09-30T02:25:21;12.90;99.90
20167;DHT22;10243;49.118;8.508;2022-09-30T02:28:26;12.90;99.90
20167;DHT22;10243;49.118;8.508;2022-09-30T02:31:32;12.90;99.90
20167;DHT22;10243;49.118;8.508;2022-09-30T02:34:38;13.10;99.90
20167;DHT22;10243;49.118;8.508;2022-09-30T02:37:44;13.20;99.90
20167;DHT22;10243;49.118;8.508;2022-09-30T02:40:50;13.20;99.90
20167;DHT22;10243;49.118;8.508;2022-09-30T02:43:54;13.20;99.90
20167;DHT22;10243;49.118;8.508;2022-09-30T02:47:03;13.20;99.90
20167;DHT22;10243;49.118;8.508;2022-09-30T02:50:15;13.10;99.90
20167;DHT22;10243;49.118;8.508;2022-09-30T02:53:22;13.10;99.90
20167;DHT22;10243;49.118;8.508;2022-09-30T02:56:33;13.20;99.90
20167;DHT22;10243;49.118;8.508;2022-09-30T02:59:39;13.20;99.90
20167;DHT22;10243;49.118;8.508;2022-09-30T03:02:41;13.20;99.90
20167;DHT22;10243;49.118;8.508;2022-09-30T03:05:45;13.20;99.90
20167;DHT22;10243;49.118;8.508;2022-09-30T03:08:47;13.20;99.90
20167;DHT22;10243;49.118;8.508;2022-09-30T03:11:49;13.10;99.90
20167;DHT22;10243;49.118;8.508;2022-09-30T03:15:09;13.00;99.90
20167;DHT22;10243;49.118;8.508;2022-09-30T03:18:33;12.90;99.90
20167;DHT22;10243;49.118;8.508;2022-09-30T03:21:50;12.90;99.90
20167;DHT22;10243;49.118;8.508;2022-09-30T03:25:10;13.00;99.90
20167;DHT22;10243;49.118;8.508;2022-09-30T03:28:21;13.00;99.90
20167;DHT22;10243;49.118;8.508;2022-09-30T03:31:33;13.00;99.90
20167;DHT22;10243;49.118;8.508;2022-09-30T03:34:48;13.10;99.90
20167;DHT22;10243;49.118;8.508;2022-09-30T03:38:00;13.10;99.90
20167;DHT22;10243;49.118;8.508;2022-09-30T03:41:09;13.10;99.90
20167;DHT22;10243;49.118;8.508;2022-09-30T03:44:16;13.20;99.90
20167;DHT22;10243;49.118;8.508;2022-09-30T03:47:21;13.30;99.90
20167;DHT22;10243;49.118;8.508;2022-09-30T03:50:26;13.30;99.90
20167;DHT22;10243;49.118;8.508;2022-09-30T03:53:30;13.20;99.90
20167;DHT22;10243;49.118;8.508;2022-09-30T03:56:38;13.30;99.90
20167;DHT22;10243;49.118;8.508;2022-09-30T03:59:42;13.20;99.90
20167;DHT22;10243;49.118;8.508;2022-09-30T04:02:44;13.20;99.90
20167;DHT22;10243;49.118;8.508;2022-09-30T04:05:47;13.20;99.90
20167;DHT22;10243;49.118;8.508;2022-09-30T04:08:50;13.20;99.90
20167;DHT22;10243;49.118;8.508;2022-09-30T04:11:53;13.20;99.90
20167;DHT22;10243;49.118;8.508;2022-09-30T04:14:55;13.30;99.90
20167;DHT22;10243;49.118;8.508;2022-09-30T04:17:57;13.30;99.90
20167;DHT22;10243;49.118;8.508;2022-09-30T04:20:59;13.30;99.90
20167;DHT22;10243;49.118;8.508;2022-09-30T04:24:02;13.30;99.90
20167;DHT22;10243;49.118;8.508;2022-09-30T04:27:04;13.20;99.90
20167;DHT22;10243;49.118;8.508;2022-09-30T04:30:06;13.20;99.90
20167;DHT22;10243;49.118;8.508;2022-09-30T04:33:08;13.20;99.90
20167;DHT22;10243;49.118;8.508;2022-09-30T04:36:12;13.20;99.90
20167;DHT22;10243;49.118;8.508;2022-09-30T04:39:15;13.20;99.90
20167;DHT22;10243;49.118;8.508;2022-09-30T04:42:17;13.20;99.90
20167;DHT22;10243;49.118;8.508;2022-09-30T04:45:19;13.10;99.90
20167;DHT22;10243;49.118;8.508;2022-09-30T04:48:21;13.10;99.90
20167;DHT22;10243;49.118;8.508;2022-09-30T04:51:23;13.00;99.90
20167;DHT22;10243;49.118;8.508;2022-09-30T04:54:26;13.00;99.90
20167;DHT22;10243;49.118;8.508;2022-09-30T04:57:28;13.00;99.90
20167;DHT22;10243;49.118;8.508;2022-09-30T05:00:29;13.00;99.90
20167;DHT22;10243;49.118;8.508;2022-09-30T05:03:32;12.90;99.90
20167;DHT22;10243;49.118;8.508;2022-09-30T05:06:34;12.90;99.90
20167;DHT22;10243;49.118;8.508;2022-09-30T05:09:37;13.00;99.90
20167;DHT22;10243;49.118;8.508;2022-09-30T05:12:39;13.00;99.90
20167;DHT22;10243;49.118;8.508;2022-09-30T05:15:41;12.90;99.90
20167;DHT22;10243;49.118;8.508;2022-09-30T05:18:43;12.70;99.90
20167;DHT22;10243;49.118;8.508;2022-09-30T05:21:46;12.70;99.90
20167;DHT22;10243;49.118;8.508;2022-09-30T05:24:49;12.60;99.90
20167;DHT22;10243;49.118;8.508;2022-09-30T05:27:52;12.60;99.90
20167;DHT22;10243;49.118;8.508;2022-09-30T05:30:55;12.50;99.90
20167;DHT22;10243;49.118;8.508;2022-09-30T05:33:58;12.50;99.90
20167;DHT22;10243;49.118;8.508;2022-09-30T05:37:00;12.40;99.90
20167;DHT22;10243;49.118;8.508;2022-09-30T05:40:05;12.40;99.90
20167;DHT22;10243;49.118;8.508;2022-09-30T05:43:07;12.50;99.90
20167;DHT22;10243;49.118;8.508;2022-09-30T05:46:09;12.60;99.90
20167;DHT22;10243;49.118;8.508;2022-09-30T05:49:10;12.60;99.90
20167;DHT22;10243;49.118;8.508;2022-09-30T05:52:12;12.60;99.90
20167;DHT22;10243;49.118;8.508;2022-09-30T05:55:16;12.40;99.90
20167;DHT22;10243;49.118;8.508;2022-09-30T05:58:18;12.10;99.90
20167;DHT22;10243;49.118;8.508;2022-09-30T06:01:20;12.00;99.90
20167;DHT22;10243;49.118;8.508;2022-09-30T06:04:22;12.10;99.90
20167;DHT22;10243;49.118;8.508;2022-09-30T06:07:24;12.00;99.90
20167;DHT22;10243;49.118;8.508;2022-09-30T06:10:27;12.20;99.90
20167;DHT22;10243;49.118;8.508;2022-09-30T06:13:29;12.20;99.90
20167;DHT22;10243;49.118;8.508;2022-09-30T06:16:31;12.30;99.90
20167;DHT22;10243;49.118;8.508;2022-09-30T06:19:33;12.30;99.90
20167;DHT22;10243;49.118;8.508;2022-09-30T06:22:35;12.20;99.90
20167;DHT22;10243;49.118;8.508;2022-09-30T06:25:38;12.20;99.90
20167;DHT22;10243;49.118;8.508;2022-09-30T06:28:41;12.10;99.90
20167;DHT22;10243;49.118;8.508;2022-09-30T06:31:44;12.10;99.90
20167;DHT22;10243;49.118;8.508;2022-09-30T06:34:46;11.90;99.90
20167;DHT22;10243;49.118;8.508;2022-09-30T06:37:50;11.80;99.90
20167;DHT22;10243;49.118;8.508;2022-09-30T06:40:53;12.10;99.90
20167;DHT22;10243;49.118;8.508;2022-09-30T06:43:56;12.40;99.90
20167;DHT22;10243;49.118;8.508;2022-09-30T06:46:58;12.40;99.90
20167;DHT22;10243;49.118;8.508;2022-09-30T06:50:00;12.30;99.90
20167;DHT22;10243;49.118;8.508;2022-09-30T06:53:04;12.30;99.90
20167;DHT22;10243;49.118;8.508;2022-09-30T06:56:08;12.30;99.90
20167;DHT22;10243;49.118;8.508;2022-09-30T06:59:10;12.60;99.90
20167;DHT22;10243;49.118;8.508;2022-09-30T07:02:12;12.70;99.90
20167;DHT22;10243;49.118;8.508;2022-09-30T07:05:14;12.90;99.90
20167;DHT22;10243;49.118;8.508;2022-09-30T07:08:16;13.00;99.90
20167;DHT22;10243;49.118;8.508;2022-09-30T07:11:20;13.00;99.90
20167;DHT22;10243;49.118;8.508;2022-09-30T07:14:21;13.20;99.90
20167;DHT22;10243;49.118;8.508;2022-09-30T07:17:23;13.10;99.90
20167;DHT22;10243;49.118;8.508;2022-09-30T07:20:25;13.10;99.90
20167;DHT22;10243;49.118;8.508;2022-09-30T07:23:27;13.00;99.90
20167;DHT22;10243;49.118;8.508;2022-09-30T07:26:31;13.10;99.90
20167;DHT22;10243;49.118;8.508;2022-09-30T07:29:32;13.30;99.90
20167;DHT22;10243;49.118;8.508;2022-09-30T07:32:34;13.10;99.90
20167;DHT22;10243;49.118;8.508;2022-09-30T07:35:36;12.70;99.90
20167;DHT22;10243;49.118;8.508;2022-09-30T07:38:40;12.80;99.90
20167;DHT22;10243;49.118;8.508;2022-09-30T07:41:43;12.80;99.90
20167;DHT22;10243;49.118;8.508;2022-09-30T07:44:45;13.10;99.90
20167;DHT22;10243;49.118;8.508;2022-09-30T07:47:47;13.30;99.90
20167;DHT22;10243;49.118;8.508;2022-09-30T07:50:52;13.10;99.90
20167;DHT22;10243;49.118;8.508;2022-09-30T07:53:57;13.00;99.90
20167;DHT22;10243;49.118;8.508;2022-09-30T07:57:02;13.30;99.90
20167;DHT22;10243;49.118;8.508;2022-09-30T08:00:05;13.20;99.90
20167;DHT22;10243;49.118;8.508;2022-09-30T08:03:12;13.30;99.90
20167;DHT22;10243;49.118;8.508;2022-09-30T08:06:16;13.50;99.90
20167;DHT22;10243;49.118;8.508;2022-09-30T08:09:20;13.70;99.90
20167;DHT22;10243;49.118;8.508;2022-09-30T08:12:23;13.60;99.90
20167;DHT22;10243;49.118;8.508;2022-09-30T08:15:25;13.50;99.90
20167;DHT22;10243;49.118;8.508;2022-09-30T08:18:27;13.40;99.90
20167;DHT22;10243;49.118;8.508;2022-09-30T08:21:29;13.60;99.90
20167;DHT22;10243;49.118;8.508;2022-09-30T08:24:30;14.00;99.90
20167;DHT22;10243;49.118;8.508;2022-09-30T08:27:34;14.00;99.90
20167;DHT22;10243;49.118;8.508;2022-09-30T08:30:36;14.00;99.90
20167;DHT22;10243;49.118;8.508;2022-09-30T08:33:39;14.00;99.90
20167;DHT22;10243;49.118;8.508;2022-09-30T08:36:41;14.20;99.90
20167;DHT22;10243;49.118;8.508;2022-09-30T08:39:43;14.40;99.90
20167;DHT22;10243;49.118;8.508;2022-09-30T08:43:02;14.50;99.90
20167;DHT22;10243;49.118;8.508;2022-09-30T08:46:08;14.40;99.90
20167;DHT22;10243;49.118;8.508;2022-09-30T08:49:32;14.50;99.90
20167;DHT22;10243;49.118;8.508;2022-09-30T08:52:39;14.40;99.90
20167;DHT22;10243;49.118;8.508;2022-09-30T08:55:43;14.30;99.90
20167;DHT22;10243;49.118;8.508;2022-09-30T08:58:48;14.20;99.90
20167;DHT22;10243;49.118;8.508;2022-09-30T09:01:55;14.20;99.90
20167;DHT22;10243;49.118;8.508;2022-09-30T09:05:01;13.90;99.90
20167;DHT22;10243;49.118;8.508;2022-09-30T09:08:10;14.10;99.90
20167;DHT22;10243;49.118;8.508;2022-09-30T09:11:21;14.50;99.90
20167;DHT22;10243;49.118;8.508;2022-09-30T09:14:38;14.00;99.90
20167;DHT22;10243;49.118;8.508;2022-09-30T09:17:54;14.10;99.90
20167;DHT22;10243;49.118;8.508;2022-09-30T09:21:12;14.30;99.90
20167;DHT22;10243;49.118;8.508;2022-09-30T09:24:22;14.30;99.90
20167;DHT22;10243;49.118;8.508;2022-09-30T09:27:34;14.40;99.90
20167;DHT22;10243;49.118;8.508;2022-09-30T09:30:44;14.60;99.90
20167;DHT22;10243;49.118;8.508;2022-09-30T09:33:48;14.80;99.90
20167;DHT22;10243;49.118;8.508;2022-09-30T09:37:04;15.20;99.90
20167;DHT22;10243;49.118;8.508;2022-09-30T09:40:11;15.10;99.90
20167;DHT22;10243;49.118;8.508;2022-09-30T09:43:19;15.40;99.90
20167;DHT22;10243;49.118;8.508;2022-09-30T09:46:26;15.60;99.90
20167;DHT22;10243;49.118;8.508;2022-09-30T09:49:34;15.40;99.90
20167;DHT22;10243;49.118;8.508;2022-09-30T09:52:46;15.40;99.90
20167;DHT22;10243;49.118;8.508;2022-09-30T09:55:54;15.70;99.90
20167;DHT22;10243;49.118;8.508;2022-09-30T09:59:07;15.80;99.90
20167;DHT22;10243;49.118;8.508;2022-09-30T10:02:23;15.70;99.90
20167;DHT22;10243;49.118;8.508;2022-09-30T10:05:26;15.90;99.90
20167;DHT22;10243;49.118;8.508;2022-09-30T10:08:31;15.90;99.90
20167;DHT22;10243;49.118;8.508;2022-09-30T10:11:33;15.90;99.90
20167;DHT22;10243;49.118;8.508;2022-09-30T10:14:37;16.00;99.90
20167;DHT22;10243;49.118;8.508;2022-09-30T10:17:52;16.00;99.90
20167;DHT22;10243;49.118;8.508;2022-09-30T10:20:57;16.20;99.90
20167;DHT22;10243;49.118;8.508;2022-09-30T10:24:18;16.30;99.90
20167;DHT22;10243;49.118;8.508;2022-09-30T10:27:27;16.40;99.90
20167;DHT22;10243;49.118;8.508;2022-09-30T10:30:39;16.40;99.90
20167;DHT22;10243;49.118;8.508;2022-09-30T10:33:46;16.50;99.90
20167;DHT22;10243;49.118;8.508;2022-09-30T10:36:49;16.50;99.90
20167;DHT22;10243;49.118;8.508;2022-09-30T10:39:55;16.60;99.90
20167;DHT22;10243;49.118;8.508;2022-09-30T10:42:58;16.50;99.90
20167;DHT22;10243;49.118;8.508;2022-09-30T10:46:00;16.60;99.90
20167;DHT22;10243;49.118;8.508;2022-09-30T10:49:09;16.60;99.90
20167;DHT22;10243;49.118;8.508;2022-09-30T10:52:18;16.60;99.90
20167;DHT22;10243;49.118;8.508;2022-09-30T10:55:26;16.50;99.90
20167;DHT22;10243;49.118;8.508;2022-09-30T10:58:41;16.60;99.90
20167;DHT22;10243;49.118;8.508;2022-09-30T11:01:47;16.60;99.90
20167;DHT22;10243;49.118;8.508;2022-09-30T11:04:59;16.70;99.90
20167;DHT22;10243;49.118;8.508;2022-09-30T11:08:09;16.90;99.90
20167;DHT22;10243;49.118;8.508;2022-09-30T11:11:18;16.90;99.90
20167;DHT22;10243;49.118;8.508;2022-09-30T11:14:28;17.00;99.90
20167;DHT22;10243;49.118;8.508;2022-09-30T11:17:35;17.20;99.90
20167;DHT22;10243;49.118;8.508;2022-09-30T11:20:46;16.90;99.90
20167;DHT22;10243;49.118;8.508;2022-09-30T11:23:52;16.90;99.90
20167;DHT22;10243;49.118;8.508;2022-09-30T11:27:01;17.10;99.90
20167;DHT22;10243;49.118;8.508;2022-09-30T11:30:10;17.10;99.90
20167;DHT22;10243;49.118;8.508;2022-09-30T11:33:24;17.30;99.90
20167;DHT22;10243;49.118;8.508;2022-09-30T11:36:37;17.30;99.90
20167;DHT22;10243;49.118;8.508;2022-09-30T11:43:24;17.70;99.90
20167;DHT22;10243;49.118;8.508;2022-09-30T11:46:42;17.70;99.90
20167;DHT22;10243;49.118;8.508;2022-09-30T11:50:02;17.50;99.90
20167;DHT22;10243;49.118;8.508;2022-09-30T11:53:17;17.50;99.90
20167;DHT22;10243;49.118;8.508;2022-09-30T11:56:35;17.60;99.90
20167;DHT22;10243;49.118;8.508;2022-09-30T11:59:42;17.70;99.90
20167;DHT22;10243;49.118;8.508;2022-09-30T12:02:47;17.80;99.90
20167;DHT22;10243;49.118;8.508;2022-09-30T12:05:53;18.00;99.50
20167;DHT22;10243;49.118;8.508;2022-09-30T12:09:02;17.80;99.00
20167;DHT22;10243;49.118;8.508;2022-09-30T12:12:08;17.70;99.20
20167;DHT22;10243;49.118;8.508;2022-09-30T12:15:15;17.70;99.20
20167;DHT22;10243;49.118;8.508;2022-09-30T12:18:21;17.90;99.80
20167;DHT22;10243;49.118;8.508;2022-09-30T12:21:28;17.70;99.40
20167;DHT22;10243;49.118;8.508;2022-09-30T12:24:37;17.70;99.90
20167;DHT22;10243;49.118;8.508;2022-09-30T12:27:43;18.00;99.90
20167;DHT22;10243;49.118;8.508;2022-09-30T12:30:47;18.20;99.20
20167;DHT22;10243;49.118;8.508;2022-09-30T12:34:02;18.30;98.20
20167;DHT22;10243;49.118;8.508;2022-09-30T12:37:22;18.50;99.40
20167;DHT22;10243;49.118;8.508;2022-09-30T12:40:48;18.50;98.00
20167;DHT22;10243;49.118;8.508;2022-09-30T12:47:44;18.40;97.10
20167;DHT22;10243;49.118;8.508;2022-09-30T12:50:49;18.40;96.80
20167;DHT22;10243;49.118;8.508;2022-09-30T12:53:57;18.30;96.30
20167;DHT22;10243;49.118;8.508;2022-09-30T12:57:02;18.20;95.60
20167;DHT22;10243;49.118;8.508;2022-09-30T13:00:13;18.20;94.70
20167;DHT22;10243;49.118;8.508;2022-09-30T13:03:17;18.20;95.20
20167;DHT22;10243;49.118;8.508;2022-09-30T13:06:20;18.10;96.00
20167;DHT22;10243;49.118;8.508;2022-09-30T13:09:30;18.20;95.40
20167;DHT22;10243;49.118;8.508;2022-09-30T13:12:42;18.30;94.60
20167;DHT22;10243;49.118;8.508;2022-09-30T13:15:44;18.40;94.10
20167;DHT22;10243;49.118;8.508;2022-09-30T13:19:00;18.60;94.40
20167;DHT22;10243;49.118;8.508;2022-09-30T13:25:53;18.30;93.40
20167;DHT22;10243;49.118;8.508;2022-09-30T13:29:31;18.30;95.20
20167;DHT22;10243;49.118;8.508;2022-09-30T13:32:36;18.40;94.00
20167;DHT22;10243;49.118;8.508;2022-09-30T13:35:48;18.40;94.40
20167;DHT22;10243;49.118;8.508;2022-09-30T13:39:19;18.30;95.10
20167;DHT22;10243;49.118;8.508;2022-09-30T13:42:24;18.10;96.80
20167;DHT22;10243;49.118;8.508;2022-09-30T13:45:33;18.00;96.10
20167;DHT22;10243;49.118;8.508;2022-09-30T13:48:43;18.00;96.30
20167;DHT22;10243;49.118;8.508;2022-09-30T13:51:49;17.90;96.10
20167;DHT22;10243;49.118;8.508;2022-09-30T13:54:51;17.90;96.70
20167;DHT22;10243;49.118;8.508;2022-09-30T13:58:04;17.90;97.30
20167;DHT22;10243;49.118;8.508;2022-09-30T14:01:21;18.10;96.30
20167;DHT22;10243;49.118;8.508;2022-09-30T14:04:55;18.50;96.00
20167;DHT22;10243;49.118;8.508;2022-09-30T14:08:11;18.80;95.60
20167;DHT22;10243;49.118;8.508;2022-09-30T14:11:31;19.10;94.70
20167;DHT22;10243;49.118;8.508;2022-09-30T14:15:02;19.30;95.60
20167;DHT22;10243;49.118;8.508;2022-09-30T14:18:28;19.40;94.30
20167;DHT22;10243;49.118;8.508;2022-09-30T14:21:35;19.60;94.80
20167;DHT22;10243;49.118;8.508;2022-09-30T14:24:38;19.50;92.00
20167;DHT22;10243;49.118;8.508;2022-09-30T14:27:57;19.30;92.30
20167;DHT22;10243;49.118;8.508;2022-09-30T14:31:03;19.20;93.70
20167;DHT22;10243;49.118;8.508;2022-09-30T14:34:15;19.20;93.00
20167;DHT22;10243;49.118;8.508;2022-09-30T14:37:21;19.10;92.40
20167;DHT22;10243;49.118;8.508;2022-09-30T14:40:27;19.20;92.30
20167;DHT22;10243;49.118;8.508;2022-09-30T14:43:30;19.30;93.20
20167;DHT22;10243;49.118;8.508;2022-09-30T14:46:37;19.40;93.70
20167;DHT22;10243;49.118;8.508;2022-09-30T14:49:40;19.30;93.30
20167;DHT22;10243;49.118;8.508;2022-09-30T14:52:44;19.20;93.20
20167;DHT22;10243;49.118;8.508;2022-09-30T14:55:48;19.10;92.90
20167;DHT22;10243;49.118;8.508;2022-09-30T14:58:50;19.00;92.10
20167;DHT22;10243;49.118;8.508;2022-09-30T15:01:55;19.00;93.50
20167;DHT22;10243;49.118;8.508;2022-09-30T15:05:02;19.00;94.00
20167;DHT22;10243;49.118;8.508;2022-09-30T15:08:09;18.90;93.70
20167;DHT22;10243;49.118;8.508;2022-09-30T15:11:17;18.70;92.00
20167;DHT22;10243;49.118;8.508;2022-09-30T15:14:21;18.80;92.50
20167;DHT22;10243;49.118;8.508;2022-09-30T15:17:25;18.80;94.10
20167;DHT22;10243;49.118;8.508;2022-09-30T15:20:31;18.80;93.90
20167;DHT22;10243;49.118;8.508;2022-09-30T15:23:35;18.90;94.70
20167;DHT22;10243;49.118;8.508;2022-09-30T15:26:39;19.00;94.20
20167;DHT22;10243;49.118;8.508;2022-09-30T15:29:53;19.20;94.30
20167;DHT22;10243;49.118;8.508;2022-09-30T15:32:57;19.20;93.60
20167;DHT22;10243;49.118;8.508;2022-09-30T15:36:05;19.20;93.50
20167;DHT22;10243;49.118;8.508;2022-09-30T15:39:18;19.20;94.60
20167;DHT22;10243;49.118;8.508;2022-09-30T15:42:30;19.10;94.50
20167;DHT22;10243;49.118;8.508;2022-09-30T15:45:35;19.00;94.60
20167;DHT22;10243;49.118;8.508;2022-09-30T15:48:40;19.00;93.40
20167;DHT22;10243;49.118;8.508;2022-09-30T15:51:45;19.00;94.20
20167;DHT22;10243;49.118;8.508;2022-09-30T15:54:47;19.00;94.60
20167;DHT22;10243;49.118;8.508;2022-09-30T15:57:49;18.90;94.20
20167;DHT22;10243;49.118;8.508;2022-09-30T16:00:51;18.90;94.60
20167;DHT22;10243;49.118;8.508;2022-09-30T16:03:55;18.80;93.40
20167;DHT22;10243;49.118;8.508;2022-09-30T16:07:05;18.70;93.90
20167;DHT22;10243;49.118;8.508;2022-09-30T16:10:16;18.60;93.50
20167;DHT22;10243;49.118;8.508;2022-09-30T16:13:20;18.50;94.50
20167;DHT22;10243;49.118;8.508;2022-09-30T16:16:26;18.40;94.40
20167;DHT22;10243;49.118;8.508;2022-09-30T16:19:29;18.30;94.20
20167;DHT22;10243;49.118;8.508;2022-09-30T16:22:49;18.20;94.60
20167;DHT22;10243;49.118;8.508;2022-09-30T16:26:11;18.20;95.30
20167;DHT22;10243;49.118;8.508;2022-09-30T16:29:13;18.00;94.90
20167;DHT22;10243;49.118;8.508;2022-09-30T16:32:16;17.90;95.80
20167;DHT22;10243;49.118;8.508;2022-09-30T16:35:20;17.90;96.50
20167;DHT22;10243;49.118;8.508;2022-09-30T16:38:24;17.90;96.30
20167;DHT22;10243;49.118;8.508;2022-09-30T16:41:26;17.70;95.90
20167;DHT22;10243;49.118;8.508;2022-09-30T16:44:28;17.70;96.50
20167;DHT22;10243;49.118;8.508;2022-09-30T16:47:31;17.60;96.40
20167;DHT22;10243;49.118;8.508;2022-09-30T16:50:37;17.60;96.50
20167;DHT22;10243;49.118;8.508;2022-09-30T16:53:41;17.50;96.40
20167;DHT22;10243;49.118;8.508;2022-09-30T16:56:43;17.40;97.00
20167;DHT22;10243;49.118;8.508;2022-09-30T16:59:45;17.30;97.70
20167;DHT22;10243;49.118;8.508;2022-09-30T17:02:47;17.30;97.50
20167;DHT22;10243;49.118;8.508;2022-09-30T17:05:49;17.20;97.80
20167;DHT22;10243;49.118;8.508;2022-09-30T17:08:54;17.10;98.00
20167;DHT22;10243;49.118;8.508;2022-09-30T17:11:56;16.90;98.60
20167;DHT22;10243;49.118;8.508;2022-09-30T17:15:00;16.70;98.90
20167;DHT22;10243;49.118;8.508;2022-09-30T17:18:04;16.50;99.50
20167;DHT22;10243;49.118;8.508;2022-09-30T17:21:06;16.30;99.70
20167;DHT22;10243;49.118;8.508;2022-09-30T17:24:10;16.10;99.90
20167;DHT22;10243;49.118;8.508;2022-09-30T17:27:12;15.90;99.90
20167;DHT22;10243;49.118;8.508;2022-09-30T17:30:14;15.70;99.90
20167;DHT22;10243;49.118;8.508;2022-09-30T17:33:16;15.60;99.90
20167;DHT22;10243;49.118;8.508;2022-09-30T17:36:19;15.50;99.90
20167;DHT22;10243;49.118;8.508;2022-09-30T17:39:24;15.30;99.90
20167;DHT22;10243;49.118;8.508;2022-09-30T17:42:26;15.20;99.90
20167;DHT22;10243;49.118;8.508;2022-09-30T17:45:46;15.20;99.90
20167;DHT22;10243;49.118;8.508;2022-09-30T17:48:53;15.20;99.90
20167;DHT22;10243;49.118;8.508;2022-09-30T17:51:55;15.10;99.90
20167;DHT22;10243;49.118;8.508;2022-09-30T17:55:00;15.00;99.90
20167;DHT22;10243;49.118;8.508;2022-09-30T17:58:05;14.90;99.90
20167;DHT22;10243;49.118;8.508;2022-09-30T18:01:08;14.80;99.90
20167;DHT22;10243;49.118;8.508;2022-09-30T18:04:10;14.70;99.90
20167;DHT22;10243;49.118;8.508;2022-09-30T18:07:12;14.60;99.90
20167;DHT22;10243;49.118;8.508;2022-09-30T18:10:15;14.60;99.90
20167;DHT22;10243;49.118;8.508;2022-09-30T18:13:17;14.50;99.90
20167;DHT22;10243;49.118;8.508;2022-09-30T18:16:19;14.40;99.90
20167;DHT22;10243;49.118;8.508;2022-09-30T18:19:21;14.30;99.90
20167;DHT22;10243;49.118;8.508;2022-09-30T18:22:23;14.20;99.90
20167;DHT22;10243;49.118;8.508;2022-09-30T18:25:26;14.20;99.90
20167;DHT22;10243;49.118;8.508;2022-09-30T18:28:29;14.30;99.90
20167;DHT22;10243;49.118;8.508;2022-09-30T18:31:31;14.20;99.90
20167;DHT22;10243;49.118;8.508;2022-09-30T18:34:35;14.20;99.90
20167;DHT22;10243;49.118;8.508;2022-09-30T18:37:38;14.10;99.90
20167;DHT22;10243;49.118;8.508;2022-09-30T18:40:43;14.10;99.90
20167;DHT22;10243;49.118;8.508;2022-09-30T18:43:45;14.00;99.90
20167;DHT22;10243;49.118;8.508;2022-09-30T18:46:47;14.00;99.90
20167;DHT22;10243;49.118;8.508;2022-09-30T18:49:49;14.10;99.90
20167;DHT22;10243;49.118;8.508;2022-09-30T18:52:51;14.20;99.90
20167;DHT22;10243;49.118;8.508;2022-09-30T18:55:58;14.20;99.90
20167;DHT22;10243;49.118;8.508;2022-09-30T18:59:02;14.30;99.90
20167;DHT22;10243;49.118;8.508;2022-09-30T19:02:04;14.20;99.90
20167;DHT22;10243;49.118;8.508;2022-09-30T19:05:07;14.00;99.90
20167;DHT22;10243;49.118;8.508;2022-09-30T19:08:08;13.90;99.90
20167;DHT22;10243;49.118;8.508;2022-09-30T19:11:13;13.90;99.90
20167;DHT22;10243;49.118;8.508;2022-09-30T19:14:17;13.80;99.90
20167;DHT22;10243;49.118;8.508;2022-09-30T19:17:19;13.80;99.90
20167;DHT22;10243;49.118;8.508;2022-09-30T19:20:21;13.90;99.90
20167;DHT22;10243;49.118;8.508;2022-09-30T19:23:23;13.90;99.90
20167;DHT22;10243;49.118;8.508;2022-09-30T19:26:26;13.90;99.90
20167;DHT22;10243;49.118;8.508;2022-09-30T19:29:29;13.90;99.90
20167;DHT22;10243;49.118;8.508;2022-09-30T19:32:31;13.80;99.90
20167;DHT22;10243;49.118;8.508;2022-09-30T19:35:34;13.70;99.90
20167;DHT22;10243;49.118;8.508;2022-09-30T19:38:36;13.70;99.90
20167;DHT22;10243;49.118;8.508;2022-09-30T19:41:39;13.70;99.90
20167;DHT22;10243;49.118;8.508;2022-09-30T19:44:41;13.60;99.90
20167;DHT22;10243;49.118;8.508;2022-09-30T19:47:43;13.70;99.90